• Join FlightAware (Why Join?)
  • Login
  • US Flag 
06:20AM EDT


 

Airport Tracker/Info


-or-


 

Live Flight TrackerFlight Track Log ✈ MKU302 ✈ 30-Apr-2013 ✈ PHJH / JHM - PHNL

Flight Track Log - Related Links

Times and Time Zones

All times are in EDT time to prevent confusion due to time zone crossing. See the MKU302 flight status page for this flight to view local times or setup timezone preferences in your user account.

Time Position Orientation Groundspeed Altitude Reporting Facility
EDT Latitude Longitude Course Direction KTS MPH feet Rate Location/Type
02:10PM 20.9333 -156.7500 298° West 150 173 4,100  Level Honolulu Center
02:11PM 20.9500 -156.8000 290° West 150 173 5,500 1,260 Climbing Honolulu Center
02:12PM 20.9500 -156.8333 270° West 140 161 6,700 1,080 Climbing Honolulu Center
02:13PM 20.9500 -156.8833 270° West 180 207 7,700 600 Climbing Honolulu Center
02:14PM 20.9333 -156.9500 255° West 210 242 8,000 120 Climbing Honolulu Center
02:15PM 20.8596 -157.1179 240° Southwest  Level FlightAware Approximate
02:15PM 20.9333 -157.0167 270° West 230 265 8,000  Level Honolulu Center
02:16PM 20.9333 -157.0833 270° West 240 276 8,000  Level Honolulu Center
02:17PM 20.9167 -157.1667 258° West 230 265 8,000  Level Honolulu Center
02:18PM 20.9167 -157.2333 270° West 230 265 8,000  Level Honolulu Center
02:19PM 20.9167 -157.3000 270° West 240 276 8,000 -120 Level Honolulu Center
02:20PM 20.9333 -157.3667 285° West 240 276 7,800 -600 Descending Honolulu Center
02:21PM 20.9500 -157.4333 285° West 240 276 6,900 -960 Descending Honolulu Center
02:22PM 20.9667 -157.5000 285° West 240 276 5,900 -1,020 Descending Honolulu Center
02:23PM 21.0000 -157.5833 293° West 240 276 4,900 -1,020 Descending Honolulu Center
02:24PM 21.0167 -157.6500 285° West 240 276 3,900 -840 Descending Honolulu Center
02:25PM 21.0500 -157.7000 306° West 230 265 3,300 -660 Descending Honolulu Center
02:26PM 21.0833 -157.7667 298° West 240 276 2,600 -900 Descending Honolulu Center
02:27PM 21.1167 -157.8333 298° West 220 253 1,600 -600 Descending Honolulu Center
02:28PM 21.1500 -157.8833 306° West 210 242 1,500  Descending Honolulu Center
02:29PM 21.1833 -157.9167 317° Northwest 180 207 1,600  Climbing Honolulu Center
02:30PM 21.2333 -157.9333 343° North 170 196 1,600 -60 Level Honolulu Center
02:31PM 21.2833 -157.9500 343° North 160 184 1,500 -420 Descending Honolulu Center
02:32PM 21.3167 -157.9667 335° Northwest 130 150 800 -720 Descending Honolulu Center
02:34PM 21.3187 -157.9224 90° East  Level Estimated